sensor_id;sensor_type;location;lat;lon;timestamp;temperature;humidity
39017;DHT22;24784;45.582;5.276;2023-03-04T00:00:21;4.90;99.90
39017;DHT22;24784;45.582;5.276;2023-03-04T00:02:48;4.90;99.90
39017;DHT22;24784;45.582;5.276;2023-03-04T00:05:13;4.90;99.90
39017;DHT22;24784;45.582;5.276;2023-03-04T00:07:39;5.00;99.90
39017;DHT22;24784;45.582;5.276;2023-03-04T00:10:05;4.90;99.90
39017;DHT22;24784;45.582;5.276;2023-03-04T00:12:31;4.80;99.90
39017;DHT22;24784;45.582;5.276;2023-03-04T00:14:57;4.90;99.90
39017;DHT22;24784;45.582;5.276;2023-03-04T00:17:23;4.90;99.90
39017;DHT22;24784;45.582;5.276;2023-03-04T00:19:48;4.90;99.90
39017;DHT22;24784;45.582;5.276;2023-03-04T00:22:14;4.80;99.90
39017;DHT22;24784;45.582;5.276;2023-03-04T00:24:40;4.90;99.90
39017;DHT22;24784;45.582;5.276;2023-03-04T00:27:06;4.90;99.90
39017;DHT22;24784;45.582;5.276;2023-03-04T00:29:31;4.80;99.90
39017;DHT22;24784;45.582;5.276;2023-03-04T00:31:57;4.80;99.90
39017;DHT22;24784;45.582;5.276;2023-03-04T00:34:23;4.90;99.90
39017;DHT22;24784;45.582;5.276;2023-03-04T00:36:48;4.90;99.90
39017;DHT22;24784;45.582;5.276;2023-03-04T00:39:15;4.80;99.90
39017;DHT22;24784;45.582;5.276;2023-03-04T00:41:41;4.80;99.90
39017;DHT22;24784;45.582;5.276;2023-03-04T00:44:07;4.90;99.90
39017;DHT22;24784;45.582;5.276;2023-03-04T00:46:33;4.90;99.90
39017;DHT22;24784;45.582;5.276;2023-03-04T00:48:58;4.80;99.90
39017;DHT22;24784;45.582;5.276;2023-03-04T00:51:24;4.80;99.90
39017;DHT22;24784;45.582;5.276;2023-03-04T00:53:50;4.80;99.90
39017;DHT22;24784;45.582;5.276;2023-03-04T00:56:17;4.80;99.90
39017;DHT22;24784;45.582;5.276;2023-03-04T00:58:43;4.80;99.90
39017;DHT22;24784;45.582;5.276;2023-03-04T01:01:09;4.70;99.90
39017;DHT22;24784;45.582;5.276;2023-03-04T01:03:35;4.70;99.90
39017;DHT22;24784;45.582;5.276;2023-03-04T01:06:01;4.80;99.90
39017;DHT22;24784;45.582;5.276;2023-03-04T01:08:26;4.70;99.90
39017;DHT22;24784;45.582;5.276;2023-03-04T01:10:52;4.70;99.90
39017;DHT22;24784;45.582;5.276;2023-03-04T01:13:18;4.70;99.90
39017;DHT22;24784;45.582;5.276;2023-03-04T01:15:44;4.80;99.90
39017;DHT22;24784;45.582;5.276;2023-03-04T01:18:10;4.70;99.90
39017;DHT22;24784;45.582;5.276;2023-03-04T01:20:36;4.70;99.90
39017;DHT22;24784;45.582;5.276;2023-03-04T01:23:01;4.80;99.90
39017;DHT22;24784;45.582;5.276;2023-03-04T01:25:27;4.80;99.90
39017;DHT22;24784;45.582;5.276;2023-03-04T01:27:53;4.80;99.90
39017;DHT22;24784;45.582;5.276;2023-03-04T01:30:19;4.80;99.90
39017;DHT22;24784;45.582;5.276;2023-03-04T01:32:44;4.70;99.90
39017;DHT22;24784;45.582;5.276;2023-03-04T01:35:10;4.70;99.90
39017;DHT22;24784;45.582;5.276;2023-03-04T01:37:37;4.60;99.90
39017;DHT22;24784;45.582;5.276;2023-03-04T01:40:03;4.60;99.90
39017;DHT22;24784;45.582;5.276;2023-03-04T01:42:33;4.70;99.90
39017;DHT22;24784;45.582;5.276;2023-03-04T01:44:59;4.70;99.90
39017;DHT22;24784;45.582;5.276;2023-03-04T01:47:28;4.60;99.90
39017;DHT22;24784;45.582;5.276;2023-03-04T01:49:56;4.70;99.90
39017;DHT22;24784;45.582;5.276;2023-03-04T01:52:22;4.70;99.90
39017;DHT22;24784;45.582;5.276;2023-03-04T01:54:48;4.60;99.90
39017;DHT22;24784;45.582;5.276;2023-03-04T01:57:17;4.70;99.90
39017;DHT22;24784;45.582;5.276;2023-03-04T01:59:43;4.70;99.90
39017;DHT22;24784;45.582;5.276;2023-03-04T02:02:09;4.60;99.90
39017;DHT22;24784;45.582;5.276;2023-03-04T02:04:35;4.60;99.90
39017;DHT22;24784;45.582;5.276;2023-03-04T02:07:02;4.60;99.90
39017;DHT22;24784;45.582;5.276;2023-03-04T02:09:30;4.70;99.90
39017;DHT22;24784;45.582;5.276;2023-03-04T02:11:56;4.60;99.90
39017;DHT22;24784;45.582;5.276;2023-03-04T02:14:22;4.60;99.90
39017;DHT22;24784;45.582;5.276;2023-03-04T02:16:49;4.60;99.90
39017;DHT22;24784;45.582;5.276;2023-03-04T02:21:46;4.60;99.90
39017;DHT22;24784;45.582;5.276;2023-03-04T02:24:38;4.70;99.90
39017;DHT22;24784;45.582;5.276;2023-03-04T02:27:05;4.60;99.90
39017;DHT22;24784;45.582;5.276;2023-03-04T02:29:31;4.60;99.90
39017;DHT22;24784;45.582;5.276;2023-03-04T02:31:57;4.60;99.90
39017;DHT22;24784;45.582;5.276;2023-03-04T02:34:27;4.50;99.90
39017;DHT22;24784;45.582;5.276;2023-03-04T02:36:55;4.50;99.90
39017;DHT22;24784;45.582;5.276;2023-03-04T02:39:22;4.50;99.90
39017;DHT22;24784;45.582;5.276;2023-03-04T02:41:53;4.50;99.90
39017;DHT22;24784;45.582;5.276;2023-03-04T02:44:25;4.60;99.90
39017;DHT22;24784;45.582;5.276;2023-03-04T02:46:52;4.60;99.90
39017;DHT22;24784;45.582;5.276;2023-03-04T02:49:18;4.60;99.90
39017;DHT22;24784;45.582;5.276;2023-03-04T02:51:45;4.60;99.90
39017;DHT22;24784;45.582;5.276;2023-03-04T02:54:22;4.60;99.90
39017;DHT22;24784;45.582;5.276;2023-03-04T02:56:53;4.50;99.90
39017;DHT22;24784;45.582;5.276;2023-03-04T02:59:20;4.50;99.90
39017;DHT22;24784;45.582;5.276;2023-03-04T03:01:46;4.60;99.90
39017;DHT22;24784;45.582;5.276;2023-03-04T03:04:12;4.50;99.90
39017;DHT22;24784;45.582;5.276;2023-03-04T03:06:38;4.50;99.90
39017;DHT22;24784;45.582;5.276;2023-03-04T03:09:04;4.60;99.90
39017;DHT22;24784;45.582;5.276;2023-03-04T03:11:30;4.60;99.90
39017;DHT22;24784;45.582;5.276;2023-03-04T03:13:56;4.60;99.90
39017;DHT22;24784;45.582;5.276;2023-03-04T03:16:22;4.60;99.90
39017;DHT22;24784;45.582;5.276;2023-03-04T03:18:48;4.60;99.90
39017;DHT22;24784;45.582;5.276;2023-03-04T03:21:14;4.50;99.90
39017;DHT22;24784;45.582;5.276;2023-03-04T03:23:39;4.50;99.90
39017;DHT22;24784;45.582;5.276;2023-03-04T03:26:05;4.50;99.90
39017;DHT22;24784;45.582;5.276;2023-03-04T03:28:31;4.50;99.90
39017;DHT22;24784;45.582;5.276;2023-03-04T03:30:57;4.50;99.90
39017;DHT22;24784;45.582;5.276;2023-03-04T03:33:23;4.60;99.90
39017;DHT22;24784;45.582;5.276;2023-03-04T03:35:48;4.50;99.90
39017;DHT22;24784;45.582;5.276;2023-03-04T03:38:14;4.60;99.90
39017;DHT22;24784;45.582;5.276;2023-03-04T03:40:40;4.60;99.90
39017;DHT22;24784;45.582;5.276;2023-03-04T03:43:06;4.60;99.90
39017;DHT22;24784;45.582;5.276;2023-03-04T03:45:32;4.60;99.90
39017;DHT22;24784;45.582;5.276;2023-03-04T03:47:58;4.60;99.90
39017;DHT22;24784;45.582;5.276;2023-03-04T03:50:23;4.40;99.90
39017;DHT22;24784;45.582;5.276;2023-03-04T03:52:49;4.60;99.90
39017;DHT22;24784;45.582;5.276;2023-03-04T03:55:15;4.60;99.90
39017;DHT22;24784;45.582;5.276;2023-03-04T03:57:41;4.60;99.90
39017;DHT22;24784;45.582;5.276;2023-03-04T04:00:08;4.60;99.90
39017;DHT22;24784;45.582;5.276;2023-03-04T04:02:34;4.60;99.90
39017;DHT22;24784;45.582;5.276;2023-03-04T04:04:59;4.60;99.90
39017;DHT22;24784;45.582;5.276;2023-03-04T04:07:25;4.60;99.90
39017;DHT22;24784;45.582;5.276;2023-03-04T04:09:51;4.60;99.90
39017;DHT22;24784;45.582;5.276;2023-03-04T04:12:18;4.70;99.90
39017;DHT22;24784;45.582;5.276;2023-03-04T04:14:44;4.50;99.90
39017;DHT22;24784;45.582;5.276;2023-03-04T04:17:10;4.50;99.90
39017;DHT22;24784;45.582;5.276;2023-03-04T04:19:36;4.50;99.90
39017;DHT22;24784;45.582;5.276;2023-03-04T04:22:02;4.50;99.90
39017;DHT22;24784;45.582;5.276;2023-03-04T04:24:28;4.50;99.90
39017;DHT22;24784;45.582;5.276;2023-03-04T04:26:54;4.40;99.90
39017;DHT22;24784;45.582;5.276;2023-03-04T04:29:20;4.40;99.90
39017;DHT22;24784;45.582;5.276;2023-03-04T04:31:47;4.40;99.90
39017;DHT22;24784;45.582;5.276;2023-03-04T04:34:13;4.40;99.90
39017;DHT22;24784;45.582;5.276;2023-03-04T04:36:39;4.40;99.90
39017;DHT22;24784;45.582;5.276;2023-03-04T04:39:04;4.40;99.90
39017;DHT22;24784;45.582;5.276;2023-03-04T04:41:35;4.30;99.90
39017;DHT22;24784;45.582;5.276;2023-03-04T04:44:02;4.40;99.90
39017;DHT22;24784;45.582;5.276;2023-03-04T04:46:27;4.40;99.90
39017;DHT22;24784;45.582;5.276;2023-03-04T04:48:54;4.40;99.90
39017;DHT22;24784;45.582;5.276;2023-03-04T04:51:20;4.50;99.90
39017;DHT22;24784;45.582;5.276;2023-03-04T04:53:46;4.50;99.90
39017;DHT22;24784;45.582;5.276;2023-03-04T04:56:16;4.40;99.90
39017;DHT22;24784;45.582;5.276;2023-03-04T04:58:44;4.50;99.90
39017;DHT22;24784;45.582;5.276;2023-03-04T05:01:10;4.40;99.90
39017;DHT22;24784;45.582;5.276;2023-03-04T05:03:36;4.50;99.90
39017;DHT22;24784;45.582;5.276;2023-03-04T05:06:04;4.40;99.90
39017;DHT22;24784;45.582;5.276;2023-03-04T05:08:30;4.40;99.90
39017;DHT22;24784;45.582;5.276;2023-03-04T05:10:56;4.40;99.90
39017;DHT22;24784;45.582;5.276;2023-03-04T05:13:22;4.40;99.90
39017;DHT22;24784;45.582;5.276;2023-03-04T05:15:51;4.50;99.90
39017;DHT22;24784;45.582;5.276;2023-03-04T05:18:19;4.40;99.90
39017;DHT22;24784;45.582;5.276;2023-03-04T05:20:48;4.50;99.90
39017;DHT22;24784;45.582;5.276;2023-03-04T05:23:14;4.40;99.90
39017;DHT22;24784;45.582;5.276;2023-03-04T05:25:40;4.40;99.90
39017;DHT22;24784;45.582;5.276;2023-03-04T05:28:05;4.40;99.90
39017;DHT22;24784;45.582;5.276;2023-03-04T05:30:39;4.50;99.90
39017;DHT22;24784;45.582;5.276;2023-03-04T05:33:06;4.50;99.90
39017;DHT22;24784;45.582;5.276;2023-03-04T05:35:37;4.40;99.90
39017;DHT22;24784;45.582;5.276;2023-03-04T05:38:05;4.30;99.90
39017;DHT22;24784;45.582;5.276;2023-03-04T05:40:31;4.40;99.90
39017;DHT22;24784;45.582;5.276;2023-03-04T05:42:57;4.30;99.90
39017;DHT22;24784;45.582;5.276;2023-03-04T05:45:23;4.40;99.90
39017;DHT22;24784;45.582;5.276;2023-03-04T05:47:49;4.40;99.90
39017;DHT22;24784;45.582;5.276;2023-03-04T05:50:15;4.40;99.90
39017;DHT22;24784;45.582;5.276;2023-03-04T05:52:40;4.50;99.90
39017;DHT22;24784;45.582;5.276;2023-03-04T05:55:07;4.50;99.90
39017;DHT22;24784;45.582;5.276;2023-03-04T05:57:32;4.40;99.90
39017;DHT22;24784;45.582;5.276;2023-03-04T05:59:58;4.40;99.90
39017;DHT22;24784;45.582;5.276;2023-03-04T06:02:24;4.40;99.90
39017;DHT22;24784;45.582;5.276;2023-03-04T06:04:49;4.50;99.90
39017;DHT22;24784;45.582;5.276;2023-03-04T06:07:15;4.40;99.90
39017;DHT22;24784;45.582;5.276;2023-03-04T06:09:41;4.30;99.90
39017;DHT22;24784;45.582;5.276;2023-03-04T06:12:10;4.30;99.90
39017;DHT22;24784;45.582;5.276;2023-03-04T06:14:35;4.30;99.90
39017;DHT22;24784;45.582;5.276;2023-03-04T06:17:01;4.30;99.90
39017;DHT22;24784;45.582;5.276;2023-03-04T06:19:27;4.20;99.90
39017;DHT22;24784;45.582;5.276;2023-03-04T06:21:53;4.30;99.90
39017;DHT22;24784;45.582;5.276;2023-03-04T06:24:19;4.20;99.90
39017;DHT22;24784;45.582;5.276;2023-03-04T06:26:44;4.30;99.90
39017;DHT22;24784;45.582;5.276;2023-03-04T06:29:10;4.40;99.90
39017;DHT22;24784;45.582;5.276;2023-03-04T06:31:36;4.40;99.90
39017;DHT22;24784;45.582;5.276;2023-03-04T06:34:02;4.50;99.90
39017;DHT22;24784;45.582;5.276;2023-03-04T06:36:28;4.40;99.90
39017;DHT22;24784;45.582;5.276;2023-03-04T06:38:54;4.50;99.90
39017;DHT22;24784;45.582;5.276;2023-03-04T06:41:19;4.50;99.90
39017;DHT22;24784;45.582;5.276;2023-03-04T06:43:45;4.50;99.90
39017;DHT22;24784;45.582;5.276;2023-03-04T06:46:11;4.60;99.90
39017;DHT22;24784;45.582;5.276;2023-03-04T06:48:37;4.60;99.90
39017;DHT22;24784;45.582;5.276;2023-03-04T06:51:09;4.60;99.90
39017;DHT22;24784;45.582;5.276;2023-03-04T06:53:36;4.70;99.90
39017;DHT22;24784;45.582;5.276;2023-03-04T06:56:02;4.70;99.90
39017;DHT22;24784;45.582;5.276;2023-03-04T06:58:28;4.70;99.90
39017;DHT22;24784;45.582;5.276;2023-03-04T07:00:54;4.70;99.90
39017;DHT22;24784;45.582;5.276;2023-03-04T07:03:19;4.70;99.90
39017;DHT22;24784;45.582;5.276;2023-03-04T07:05:45;4.70;99.90
39017;DHT22;24784;45.582;5.276;2023-03-04T07:08:11;4.70;99.90
39017;DHT22;24784;45.582;5.276;2023-03-04T07:10:37;4.80;99.90
39017;DHT22;24784;45.582;5.276;2023-03-04T07:13:02;4.80;99.90
39017;DHT22;24784;45.582;5.276;2023-03-04T07:15:28;4.80;99.90
39017;DHT22;24784;45.582;5.276;2023-03-04T07:17:54;4.80;99.90
39017;DHT22;24784;45.582;5.276;2023-03-04T07:20:20;4.80;99.90
39017;DHT22;24784;45.582;5.276;2023-03-04T07:22:46;4.80;99.90
39017;DHT22;24784;45.582;5.276;2023-03-04T07:25:12;4.80;99.90
39017;DHT22;24784;45.582;5.276;2023-03-04T07:27:38;4.90;99.90
39017;DHT22;24784;45.582;5.276;2023-03-04T07:30:06;4.90;99.90
39017;DHT22;24784;45.582;5.276;2023-03-04T07:32:32;5.00;99.90
39017;DHT22;24784;45.582;5.276;2023-03-04T07:35:02;4.90;99.90
39017;DHT22;24784;45.582;5.276;2023-03-04T07:37:28;4.90;99.90
39017;DHT22;24784;45.582;5.276;2023-03-04T07:39:54;4.90;99.90
39017;DHT22;24784;45.582;5.276;2023-03-04T07:42:19;4.90;99.90
39017;DHT22;24784;45.582;5.276;2023-03-04T07:44:45;4.90;99.90
39017;DHT22;24784;45.582;5.276;2023-03-04T07:47:11;5.00;99.90
39017;DHT22;24784;45.582;5.276;2023-03-04T07:49:37;4.90;99.90
39017;DHT22;24784;45.582;5.276;2023-03-04T07:52:03;4.90;99.90
39017;DHT22;24784;45.582;5.276;2023-03-04T07:54:29;5.00;99.90
39017;DHT22;24784;45.582;5.276;2023-03-04T07:56:55;5.00;99.90
39017;DHT22;24784;45.582;5.276;2023-03-04T07:59:21;5.10;99.90
39017;DHT22;24784;45.582;5.276;2023-03-04T08:01:47;5.00;99.90
39017;DHT22;24784;45.582;5.276;2023-03-04T08:04:12;5.00;99.90
39017;DHT22;24784;45.582;5.276;2023-03-04T08:06:41;5.00;99.90
39017;DHT22;24784;45.582;5.276;2023-03-04T08:09:08;5.00;99.90
39017;DHT22;24784;45.582;5.276;2023-03-04T08:11:36;5.10;99.90
39017;DHT22;24784;45.582;5.276;2023-03-04T08:14:02;5.00;99.90
39017;DHT22;24784;45.582;5.276;2023-03-04T08:16:28;5.10;99.90
39017;DHT22;24784;45.582;5.276;2023-03-04T08:18:56;5.00;99.90
39017;DHT22;24784;45.582;5.276;2023-03-04T08:21:23;5.10;99.90
39017;DHT22;24784;45.582;5.276;2023-03-04T08:23:49;5.00;99.90
39017;DHT22;24784;45.582;5.276;2023-03-04T08:28:47;5.00;99.90
39017;DHT22;24784;45.582;5.276;2023-03-04T08:31:14;5.10;99.90
39017;DHT22;24784;45.582;5.276;2023-03-04T08:33:40;5.10;99.90
39017;DHT22;24784;45.582;5.276;2023-03-04T08:36:06;5.10;99.90
39017;DHT22;24784;45.582;5.276;2023-03-04T08:38:32;5.20;99.90
39017;DHT22;24784;45.582;5.276;2023-03-04T08:41:00;5.20;99.90
39017;DHT22;24784;45.582;5.276;2023-03-04T08:43:29;5.20;99.90
39017;DHT22;24784;45.582;5.276;2023-03-04T08:45:55;5.20;99.90
39017;DHT22;24784;45.582;5.276;2023-03-04T08:48:22;5.20;99.90
39017;DHT22;24784;45.582;5.276;2023-03-04T08:50:48;5.20;99.90
39017;DHT22;24784;45.582;5.276;2023-03-04T08:53:16;5.20;99.90
39017;DHT22;24784;45.582;5.276;2023-03-04T08:55:42;5.30;99.90
39017;DHT22;24784;45.582;5.276;2023-03-04T08:58:09;5.40;99.90
39017;DHT22;24784;45.582;5.276;2023-03-04T09:00:36;5.50;99.90
39017;DHT22;24784;45.582;5.276;2023-03-04T09:03:03;5.60;99.90
39017;DHT22;24784;45.582;5.276;2023-03-04T09:05:30;5.60;99.90
39017;DHT22;24784;45.582;5.276;2023-03-04T09:07:56;5.70;99.90
39017;DHT22;24784;45.582;5.276;2023-03-04T09:10:22;5.80;99.90
39017;DHT22;24784;45.582;5.276;2023-03-04T09:12:48;6.00;99.90
39017;DHT22;24784;45.582;5.276;2023-03-04T09:15:14;6.10;99.90
39017;DHT22;24784;45.582;5.276;2023-03-04T09:17:40;6.20;99.90
39017;DHT22;24784;45.582;5.276;2023-03-04T09:20:07;6.20;99.90
39017;DHT22;24784;45.582;5.276;2023-03-04T09:22:35;6.30;99.90
39017;DHT22;24784;45.582;5.276;2023-03-04T09:25:01;6.30;99.90
39017;DHT22;24784;45.582;5.276;2023-03-04T09:27:27;6.20;99.90
39017;DHT22;24784;45.582;5.276;2023-03-04T09:29:52;6.10;99.90
39017;DHT22;24784;45.582;5.276;2023-03-04T09:32:18;6.20;99.90
39017;DHT22;24784;45.582;5.276;2023-03-04T09:34:44;6.50;99.90
39017;DHT22;24784;45.582;5.276;2023-03-04T09:37:09;6.50;99.90
39017;DHT22;24784;45.582;5.276;2023-03-04T09:39:35;6.50;99.90
39017;DHT22;24784;45.582;5.276;2023-03-04T09:42:01;6.60;99.90
39017;DHT22;24784;45.582;5.276;2023-03-04T09:44:40;6.80;99.90
39017;DHT22;24784;45.582;5.276;2023-03-04T09:47:12;6.80;99.90
39017;DHT22;24784;45.582;5.276;2023-03-04T09:49:40;6.90;99.90
39017;DHT22;24784;45.582;5.276;2023-03-04T09:52:22;7.00;99.90
39017;DHT22;24784;45.582;5.276;2023-03-04T09:55:22;7.10;99.90
39017;DHT22;24784;45.582;5.276;2023-03-04T10:00:32;7.30;99.90
39017;DHT22;24784;45.582;5.276;2023-03-04T10:05:29;7.30;99.90
39017;DHT22;24784;45.582;5.276;2023-03-04T10:07:58;7.50;99.90
39017;DHT22;24784;45.582;5.276;2023-03-04T10:10:31;7.70;99.90
39017;DHT22;24784;45.582;5.276;2023-03-04T10:12:59;7.60;99.90
39017;DHT22;24784;45.582;5.276;2023-03-04T10:15:41;7.80;99.90
39017;DHT22;24784;45.582;5.276;2023-03-04T10:18:23;7.80;99.90
39017;DHT22;24784;45.582;5.276;2023-03-04T10:20:57;7.80;99.90
39017;DHT22;24784;45.582;5.276;2023-03-04T10:23:26;8.10;99.90
39017;DHT22;24784;45.582;5.276;2023-03-04T10:25:53;8.30;99.90
39017;DHT22;24784;45.582;5.276;2023-03-04T10:28:31;8.30;99.90
39017;DHT22;24784;45.582;5.276;2023-03-04T10:33:53;8.10;99.90
39017;DHT22;24784;45.582;5.276;2023-03-04T10:39:16;8.40;99.90
39017;DHT22;24784;45.582;5.276;2023-03-04T10:41:55;8.50;99.90
39017;DHT22;24784;45.582;5.276;2023-03-04T10:44:22;8.60;99.90
39017;DHT22;24784;45.582;5.276;2023-03-04T10:46:48;8.70;99.90
39017;DHT22;24784;45.582;5.276;2023-03-04T10:49:17;8.60;99.90
39017;DHT22;24784;45.582;5.276;2023-03-04T10:52:12;8.70;99.90
39017;DHT22;24784;45.582;5.276;2023-03-04T10:54:56;8.60;99.90
39017;DHT22;24784;45.582;5.276;2023-03-04T10:59:59;9.00;99.50
39017;DHT22;24784;45.582;5.276;2023-03-04T11:07:24;9.00;99.50
39017;DHT22;24784;45.582;5.276;2023-03-04T11:09:51;9.40;99.00
39017;DHT22;24784;45.582;5.276;2023-03-04T11:12:20;9.50;99.00
39017;DHT22;24784;45.582;5.276;2023-03-04T11:14:50;9.40;98.50
39017;DHT22;24784;45.582;5.276;2023-03-04T11:17:18;9.50;98.50
39017;DHT22;24784;45.582;5.276;2023-03-04T11:19:47;9.80;98.30
39017;DHT22;24784;45.582;5.276;2023-03-04T11:22:19;9.90;97.70
39017;DHT22;24784;45.582;5.276;2023-03-04T11:24:55;9.90;97.70
39017;DHT22;24784;45.582;5.276;2023-03-04T11:27:45;10.20;97.90
39017;DHT22;24784;45.582;5.276;2023-03-04T11:30:32;10.00;97.20
39017;DHT22;24784;45.582;5.276;2023-03-04T11:33:10;10.20;97.70
39017;DHT22;24784;45.582;5.276;2023-03-04T11:38:21;9.90;98.20
39017;DHT22;24784;45.582;5.276;2023-03-04T11:40:51;9.90;97.20
39017;DHT22;24784;45.582;5.276;2023-03-04T11:43:36;9.70;97.30
39017;DHT22;24784;45.582;5.276;2023-03-04T11:58:09;9.70;97.40
39017;DHT22;24784;45.582;5.276;2023-03-04T12:01:09;10.00;96.80
39017;DHT22;24784;45.582;5.276;2023-03-04T12:09:11;10.30;97.00
39017;DHT22;24784;45.582;5.276;2023-03-04T12:14:24;10.80;96.60
39017;DHT22;24784;45.582;5.276;2023-03-04T12:30:34;10.60;96.10
39017;DHT22;24784;45.582;5.276;2023-03-04T12:36:34;10.70;95.00
39017;DHT22;24784;45.582;5.276;2023-03-04T12:42:17;10.20;96.00
39017;DHT22;24784;45.582;5.276;2023-03-04T12:53:36;10.80;95.00
39017;DHT22;24784;45.582;5.276;2023-03-04T12:56:04;10.50;95.00
39017;DHT22;24784;45.582;5.276;2023-03-04T12:58:32;10.40;95.10
39017;DHT22;24784;45.582;5.276;2023-03-04T13:01:20;10.50;94.90
39017;DHT22;24784;45.582;5.276;2023-03-04T13:04:10;10.40;95.20
39017;DHT22;24784;45.582;5.276;2023-03-04T13:06:46;10.60;95.00
39017;DHT22;24784;45.582;5.276;2023-03-04T13:16:44;10.90;94.60
39017;DHT22;24784;45.582;5.276;2023-03-04T13:19:48;11.00;94.30
39017;DHT22;24784;45.582;5.276;2023-03-04T13:22:40;11.30;93.60
39017;DHT22;24784;45.582;5.276;2023-03-04T13:28:20;11.40;93.60
39017;DHT22;24784;45.582;5.276;2023-03-04T13:41:19;11.90;93.10
39017;DHT22;24784;45.582;5.276;2023-03-04T13:43:52;11.70;92.70
39017;DHT22;24784;45.582;5.276;2023-03-04T13:51:26;11.90;92.80
39017;DHT22;24784;45.582;5.276;2023-03-04T13:59:31;10.70;93.10
39017;DHT22;24784;45.582;5.276;2023-03-04T14:02:15;10.90;93.60
39017;DHT22;24784;45.582;5.276;2023-03-04T14:04:45;11.10;93.50
39017;DHT22;24784;45.582;5.276;2023-03-04T14:07:24;11.20;92.90
39017;DHT22;24784;45.582;5.276;2023-03-04T14:10:05;10.90;92.90
39017;DHT22;24784;45.582;5.276;2023-03-04T14:12:34;10.70;93.30
39017;DHT22;24784;45.582;5.276;2023-03-04T14:17:33;11.10;93.30
39017;DHT22;24784;45.582;5.276;2023-03-04T14:20:02;10.80;93.40
39017;DHT22;24784;45.582;5.276;2023-03-04T14:22:38;11.20;94.00
39017;DHT22;24784;45.582;5.276;2023-03-04T14:25:05;11.50;93.50
39017;DHT22;24784;45.582;5.276;2023-03-04T14:27:33;11.30;92.40
39017;DHT22;24784;45.582;5.276;2023-03-04T14:30:06;11.40;92.80
39017;DHT22;24784;45.582;5.276;2023-03-04T14:32:35;11.50;93.00
39017;DHT22;24784;45.582;5.276;2023-03-04T14:35:06;11.50;93.10
39017;DHT22;24784;45.582;5.276;2023-03-04T14:37:58;11.60;93.00
39017;DHT22;24784;45.582;5.276;2023-03-04T14:40:27;11.70;92.80
39017;DHT22;24784;45.582;5.276;2023-03-04T14:42:58;11.70;92.50
39017;DHT22;24784;45.582;5.276;2023-03-04T14:45:26;11.70;92.10
39017;DHT22;24784;45.582;5.276;2023-03-04T14:47:53;11.80;92.80
39017;DHT22;24784;45.582;5.276;2023-03-04T14:50:21;11.60;91.80
39017;DHT22;24784;45.582;5.276;2023-03-04T14:52:48;11.30;92.70
39017;DHT22;24784;45.582;5.276;2023-03-04T14:57:48;11.60;92.90
39017;DHT22;24784;45.582;5.276;2023-03-04T15:00:26;11.60;93.10
39017;DHT22;24784;45.582;5.276;2023-03-04T15:02:59;11.60;92.70
39017;DHT22;24784;45.582;5.276;2023-03-04T15:05:29;11.30;93.00
39017;DHT22;24784;45.582;5.276;2023-03-04T15:08:04;11.40;93.00
39017;DHT22;24784;45.582;5.276;2023-03-04T15:10:36;11.30;92.40
39017;DHT22;24784;45.582;5.276;2023-03-04T15:13:04;11.10;92.70
39017;DHT22;24784;45.582;5.276;2023-03-04T15:18:00;11.00;92.50
39017;DHT22;24784;45.582;5.276;2023-03-04T15:20:28;10.90;92.60
39017;DHT22;24784;45.582;5.276;2023-03-04T15:23:03;11.00;93.20
39017;DHT22;24784;45.582;5.276;2023-03-04T15:25:31;11.00;92.90
39017;DHT22;24784;45.582;5.276;2023-03-04T15:27:58;10.80;92.70
39017;DHT22;24784;45.582;5.276;2023-03-04T15:30:26;10.70;93.30
39017;DHT22;24784;45.582;5.276;2023-03-04T15:32:54;10.70;93.50
39017;DHT22;24784;45.582;5.276;2023-03-04T15:35:21;10.80;93.50
39017;DHT22;24784;45.582;5.276;2023-03-04T15:37:49;10.80;93.40
39017;DHT22;24784;45.582;5.276;2023-03-04T15:42:55;10.90;93.10
39017;DHT22;24784;45.582;5.276;2023-03-04T15:45:34;10.90;93.50
39017;DHT22;24784;45.582;5.276;2023-03-04T15:48:02;10.90;93.50
39017;DHT22;24784;45.582;5.276;2023-03-04T15:50:33;10.90;93.20
39017;DHT22;24784;45.582;5.276;2023-03-04T15:53:01;10.70;93.00
39017;DHT22;24784;45.582;5.276;2023-03-04T15:55:29;10.70;93.00
39017;DHT22;24784;45.582;5.276;2023-03-04T15:57:58;10.70;92.70
39017;DHT22;24784;45.582;5.276;2023-03-04T16:00:25;10.60;92.70
39017;DHT22;24784;45.582;5.276;2023-03-04T16:02:51;10.50;92.70
39017;DHT22;24784;45.582;5.276;2023-03-04T16:05:17;10.50;92.80
39017;DHT22;24784;45.582;5.276;2023-03-04T16:07:48;10.50;93.10
39017;DHT22;24784;45.582;5.276;2023-03-04T16:10:44;10.50;93.10
39017;DHT22;24784;45.582;5.276;2023-03-04T16:13:15;10.50;92.70
39017;DHT22;24784;45.582;5.276;2023-03-04T16:15:42;10.40;92.70
39017;DHT22;24784;45.582;5.276;2023-03-04T16:18:11;10.30;92.90
39017;DHT22;24784;45.582;5.276;2023-03-04T16:20:38;10.30;93.00
39017;DHT22;24784;45.582;5.276;2023-03-04T16:23:08;10.30;92.80
39017;DHT22;24784;45.582;5.276;2023-03-04T16:25:34;10.30;92.50
39017;DHT22;24784;45.582;5.276;2023-03-04T16:28:02;10.30;92.50
39017;DHT22;24784;45.582;5.276;2023-03-04T16:30:29;10.20;92.80
39017;DHT22;24784;45.582;5.276;2023-03-04T16:32:57;10.20;92.70
39017;DHT22;24784;45.582;5.276;2023-03-04T16:35:23;10.20;92.70
39017;DHT22;24784;45.582;5.276;2023-03-04T16:37:54;10.30;93.20
39017;DHT22;24784;45.582;5.276;2023-03-04T16:40:24;10.30;93.10
39017;DHT22;24784;45.582;5.276;2023-03-04T16:42:50;10.20;92.90
39017;DHT22;24784;45.582;5.276;2023-03-04T16:45:18;10.20;92.70
39017;DHT22;24784;45.582;5.276;2023-03-04T16:47:45;10.10;93.00
39017;DHT22;24784;45.582;5.276;2023-03-04T16:50:19;10.00;92.90
39017;DHT22;24784;45.582;5.276;2023-03-04T16:52:47;10.00;93.10
39017;DHT22;24784;45.582;5.276;2023-03-04T16:55:19;10.00;92.90
39017;DHT22;24784;45.582;5.276;2023-03-04T16:57:45;9.90;92.90
39017;DHT22;24784;45.582;5.276;2023-03-04T17:00:12;9.90;93.20
39017;DHT22;24784;45.582;5.276;2023-03-04T17:02:39;9.80;93.00
39017;DHT22;24784;45.582;5.276;2023-03-04T17:05:05;9.80;93.00
39017;DHT22;24784;45.582;5.276;2023-03-04T17:07:31;9.70;92.90
39017;DHT22;24784;45.582;5.276;2023-03-04T17:09:57;9.70;92.90
39017;DHT22;24784;45.582;5.276;2023-03-04T17:12:23;9.70;92.90
39017;DHT22;24784;45.582;5.276;2023-03-04T17:14:49;9.60;92.70
39017;DHT22;24784;45.582;5.276;2023-03-04T17:17:14;9.60;92.50
39017;DHT22;24784;45.582;5.276;2023-03-04T17:19:40;9.50;92.80
39017;DHT22;24784;45.582;5.276;2023-03-04T17:22:07;9.40;92.90
39017;DHT22;24784;45.582;5.276;2023-03-04T17:24:33;9.40;93.20
39017;DHT22;24784;45.582;5.276;2023-03-04T17:26:59;9.40;92.90
39017;DHT22;24784;45.582;5.276;2023-03-04T17:29:24;9.40;93.40
39017;DHT22;24784;45.582;5.276;2023-03-04T17:31:51;9.30;93.30
39017;DHT22;24784;45.582;5.276;2023-03-04T17:34:17;9.20;93.30
39017;DHT22;24784;45.582;5.276;2023-03-04T17:36:43;9.20;93.30
39017;DHT22;24784;45.582;5.276;2023-03-04T17:39:10;9.10;93.60
39017;DHT22;24784;45.582;5.276;2023-03-04T17:41:36;9.10;93.70
39017;DHT22;24784;45.582;5.276;2023-03-04T17:44:01;9.10;93.50
39017;DHT22;24784;45.582;5.276;2023-03-04T17:46:27;9.10;93.50